createdAt,value
2018-06-09T00:00:46.578Z,62.10
2018-06-09T00:03:15.600Z,62.70
2018-06-09T00:05:43.892Z,62.70
2018-06-09T00:08:12.163Z,62.10
2018-06-09T00:10:40.436Z,62.40
2018-06-09T00:13:08.703Z,62.20
2018-06-09T00:15:36.971Z,62.20
2018-06-09T00:18:05.227Z,62.30
2018-06-09T00:20:34.265Z,62.20
2018-06-09T00:23:02.539Z,62.20
2018-06-09T00:25:30.804Z,62.10
2018-06-09T00:27:59.055Z,62.00
2018-06-09T00:30:28.206Z,61.70
2018-06-09T00:32:56.455Z,61.70
2018-06-09T00:35:24.728Z,61.70
2018-06-09T00:37:53.015Z,61.90
2018-06-09T00:40:21.255Z,61.90
2018-06-09T00:42:49.637Z,61.80
2018-06-09T00:45:17.906Z,61.70
2018-06-09T00:47:46.936Z,62.00
2018-06-09T00:50:15.204Z,62.00
2018-06-09T00:52:43.461Z,62.20
2018-06-09T00:55:11.714Z,62.40
2018-06-09T00:57:40.736Z,62.20
2018-06-09T01:00:09.004Z,62.20
2018-06-09T01:02:37.255Z,62.30
2018-06-09T01:05:06.395Z,62.20
2018-06-09T01:07:34.652Z,62.20
2018-06-09T01:10:02.902Z,62.20
2018-06-09T01:12:31.943Z,62.00
2018-06-09T01:15:00.300Z,62.00
2018-06-09T01:17:28.544Z,62.30
2018-06-09T01:19:57.723Z,63.00
2018-06-09T01:22:25.980Z,62.30
2018-06-09T01:24:54.231Z,62.40
2018-06-09T01:27:22.508Z,62.30
2018-06-09T01:29:50.754Z,62.20
2018-06-09T01:32:19.770Z,62.10
2018-06-09T01:34:48.053Z,62.10
2018-06-09T01:37:16.314Z,62.20
2018-06-09T01:39:44.582Z,62.00
2018-06-09T01:42:12.851Z,62.30
2018-06-09T01:44:41.105Z,62.20
2018-06-09T01:47:10.121Z,62.30
2018-06-09T01:49:38.387Z,62.30
2018-06-09T01:52:06.637Z,62.20
2018-06-09T01:54:34.895Z,62.10
2018-06-09T01:57:03.196Z,62.20
2018-06-09T01:59:32.220Z,62.90
2018-06-09T02:02:00.475Z,62.80
2018-06-09T02:04:29.757Z,62.80
2018-06-09T02:06:58.012Z,62.80
2018-06-09T02:09:26.274Z,62.90
2018-06-09T02:11:54.544Z,62.80
2018-06-09T02:14:22.827Z,62.90
2018-06-09T02:16:51.478Z,62.80
2018-06-09T02:19:19.738Z,62.80
2018-06-09T02:21:47.991Z,63.10
2018-06-09T02:24:17.038Z,63.40
2018-06-09T02:26:46.058Z,63.30
2018-06-09T02:29:14.328Z,63.20
2018-06-09T02:31:42.596Z,63.10
2018-06-09T02:34:10.861Z,63.10
2018-06-09T02:36:39.105Z,63.00
2018-06-09T02:39:07.374Z,63.00
2018-06-09T02:41:35.635Z,63.10
2018-06-09T02:44:04.688Z,63.10
2018-06-09T02:46:32.948Z,63.70
2018-06-09T02:49:01.290Z,63.20
2018-06-09T02:51:29.546Z,63.30
2018-06-09T02:53:57.818Z,63.60
2018-06-09T02:56:26.869Z,63.90
2018-06-09T02:58:55.131Z,63.90
2018-06-09T03:01:23.388Z,63.70
2018-06-09T03:03:51.787Z,64.00
2018-06-09T03:06:20.052Z,63.90
2018-06-09T03:08:49.140Z,63.40
2018-06-09T03:11:17.403Z,63.40
2018-06-09T03:13:45.676Z,63.30
2018-06-09T03:16:14.700Z,64.30
2018-06-09T03:18:42.983Z,64.20
2018-06-09T03:21:12.004Z,64.20
2018-06-09T03:23:40.279Z,64.20
2018-06-09T03:26:08.539Z,64.30
2018-06-09T03:28:36.820Z,64.10
2018-06-09T03:31:05.075Z,63.90
2018-06-09T03:33:33.339Z,63.90
2018-06-09T03:36:01.614Z,64.00
2018-06-09T03:38:29.877Z,64.20
2018-06-09T03:40:58.160Z,64.00
2018-06-09T03:43:27.240Z,63.90
2018-06-09T03:45:55.459Z,63.90
2018-06-09T03:48:23.704Z,64.00
2018-06-09T03:50:51.962Z,63.90
2018-06-09T03:53:20.219Z,63.90
2018-06-09T03:55:49.275Z,63.70
2018-06-09T03:58:17.531Z,63.70
2018-06-09T04:00:45.787Z,63.60
2018-06-09T04:03:14.242Z,63.70
2018-06-09T04:05:43.264Z,63.70
2018-06-09T04:08:11.527Z,63.70
2018-06-09T04:10:39.791Z,63.60
2018-06-09T04:13:09.131Z,63.20
2018-06-09T04:15:37.391Z,63.20
2018-06-09T04:18:05.636Z,63.20
2018-06-09T04:20:34.679Z,63.50
2018-06-09T04:23:02.985Z,63.50
2018-06-09T04:25:31.203Z,63.50
2018-06-09T04:27:59.736Z,63.60
2018-06-09T04:30:28.671Z,63.70
2018-06-09T04:32:56.921Z,63.60
2018-06-09T04:35:26.422Z,63.80
2018-06-09T04:37:54.667Z,63.60
2018-06-09T04:40:22.985Z,64.10
2018-06-09T04:42:52.007Z,64.10
2018-06-09T04:45:20.284Z,64.10
2018-06-09T04:47:48.528Z,64.10
2018-06-09T04:50:16.774Z,64.20
2018-06-09T04:52:46.245Z,64.40
2018-06-09T04:55:14.507Z,63.70
2018-06-09T04:57:42.753Z,64.00
2018-06-09T05:00:11.783Z,63.40
2018-06-09T05:02:40.032Z,63.30
2018-06-09T05:05:08.304Z,63.30
2018-06-09T05:07:37.628Z,63.40
2018-06-09T05:10:05.891Z,63.40
2018-06-09T05:12:34.140Z,63.30
2018-06-09T05:15:03.260Z,63.70
2018-06-09T05:17:31.534Z,63.10
2018-06-09T05:19:59.777Z,63.40
2018-06-09T05:22:28.066Z,63.40
2018-06-09T05:24:57.071Z,63.30
2018-06-09T05:27:25.327Z,63.10
2018-06-09T05:29:54.347Z,62.90
2018-06-09T05:32:22.595Z,62.90
2018-06-09T05:34:53.578Z,62.70
2018-06-09T05:37:23.407Z,62.60
2018-06-09T05:39:51.677Z,62.50
2018-06-09T05:42:19.921Z,62.60
2018-06-09T05:44:48.169Z,62.50
2018-06-09T05:47:17.505Z,62.80
2018-06-09T05:49:45.766Z,62.10
2018-06-09T05:52:14.001Z,62.00
2018-06-09T05:54:42.405Z,62.10
2018-06-09T05:57:11.444Z,61.70
2018-06-09T05:59:39.785Z,61.70
2018-06-09T06:02:08.791Z,61.80
2018-06-09T06:04:37.050Z,61.50
2018-06-09T06:07:05.307Z,61.40
2018-06-09T06:09:34.382Z,62.30
2018-06-09T06:12:02.643Z,61.70
2018-06-09T06:14:31.063Z,61.90
2018-06-09T06:17:01.791Z,61.70
2018-06-09T06:19:30.188Z,62.50
2018-06-09T06:21:58.452Z,63.20
2018-06-09T06:24:27.479Z,63.30
2018-06-09T06:26:55.749Z,63.20
2018-06-09T06:29:23.995Z,63.90
2018-06-09T06:31:53.022Z,64.30
2018-06-09T06:34:21.274Z,63.70
2018-06-09T06:36:49.525Z,63.70
2018-06-09T06:39:18.540Z,64.00
2018-06-09T06:41:46.811Z,63.20
2018-06-09T06:44:15.819Z,64.00
2018-06-09T06:46:44.094Z,64.00
2018-06-09T06:49:12.355Z,62.90
2018-06-09T06:51:40.612Z,63.00
2018-06-09T06:54:09.631Z,62.60
2018-06-09T06:56:37.921Z,62.60
2018-06-09T06:59:06.914Z,63.50
2018-06-09T07:01:35.159Z,63.50
2018-06-09T07:04:04.191Z,63.10
2018-06-09T07:06:33.211Z,63.20
2018-06-09T07:09:01.500Z,63.20
2018-06-09T07:11:29.761Z,62.10
2018-06-09T07:13:58.026Z,62.10
2018-06-09T07:16:26.304Z,62.40
2018-06-09T07:18:54.563Z,62.30
2018-06-09T07:21:22.812Z,62.00
2018-06-09T07:23:51.083Z,62.20
2018-06-09T07:26:19.338Z,62.30
2018-06-09T07:28:49.358Z,63.20
2018-06-09T07:31:18.388Z,63.60
2018-06-09T07:33:47.404Z,63.90
2018-06-09T07:36:15.709Z,63.90
2018-06-09T07:38:44.264Z,63.20
2018-06-09T07:41:12.526Z,63.20
2018-06-09T07:43:40.798Z,62.60
2018-06-09T07:46:09.367Z,60.80
2018-06-09T07:48:37.614Z,61.00
2018-06-09T07:51:05.879Z,60.10
2018-06-09T07:53:34.915Z,58.00
2018-06-09T07:56:03.191Z,58.00
2018-06-09T07:58:31.447Z,58.70
2018-06-09T08:00:59.708Z,59.10
2018-06-09T08:03:28.233Z,58.80
2018-06-09T08:05:56.502Z,57.30
2018-06-09T08:08:24.764Z,56.80
2018-06-09T08:10:53.049Z,55.60
2018-06-09T08:13:21.302Z,56.30
2018-06-09T08:15:49.599Z,56.10
2018-06-09T08:18:17.863Z,56.50
2018-06-09T08:20:46.120Z,56.90
2018-06-09T08:23:14.387Z,55.70
2018-06-09T08:25:42.658Z,56.10
2018-06-09T08:28:11.688Z,56.60
2018-06-09T08:30:40.109Z,56.60
2018-06-09T08:33:08.364Z,55.50
2018-06-09T08:35:36.632Z,55.90
2018-06-09T08:38:04.904Z,55.30
2018-06-09T08:40:33.165Z,54.70
2018-06-09T08:43:02.218Z,55.90
2018-06-09T08:45:31.231Z,56.80
2018-06-09T08:47:59.509Z,56.70
2018-06-09T08:50:27.783Z,56.30
2018-06-09T08:52:56.044Z,55.30
2018-06-09T08:55:24.301Z,55.00
2018-06-09T08:57:53.339Z,56.80
2018-06-09T09:00:21.600Z,56.70
2018-06-09T09:02:49.870Z,55.30
2018-06-09T09:05:18.154Z,54.40
2018-06-09T09:07:46.584Z,52.60
2018-06-09T09:10:14.873Z,54.50
2018-06-09T09:12:43.130Z,55.40
2018-06-09T09:15:11.402Z,55.30
2018-06-09T09:17:39.667Z,51.80
2018-06-09T09:20:07.936Z,54.30
2018-06-09T09:22:36.203Z,53.60
2018-06-09T09:25:04.495Z,53.40
2018-06-09T09:27:32.755Z,54.10
2018-06-09T09:30:01.126Z,52.70
2018-06-09T09:32:30.151Z,52.80
2018-06-09T09:34:58.411Z,52.70
2018-06-09T09:37:26.685Z,54.80
2018-06-09T09:39:54.951Z,54.60
2018-06-09T09:42:23.227Z,54.10
2018-06-09T09:44:51.495Z,53.10
2018-06-09T09:47:19.771Z,53.60
2018-06-09T09:49:48.577Z,55.10
2018-06-09T09:52:16.835Z,53.30
2018-06-09T09:54:45.147Z,53.00
2018-06-09T09:57:13.421Z,53.00
2018-06-09T09:59:41.687Z,51.60
2018-06-09T10:02:09.954Z,52.30
2018-06-09T10:04:38.245Z,49.60
2018-06-09T10:07:06.530Z,51.60
2018-06-09T10:09:34.796Z,51.10
2018-06-09T10:12:03.056Z,49.90
2018-06-09T10:14:31.311Z,51.20
2018-06-09T10:16:59.888Z,51.90
2018-06-09T10:19:28.139Z,49.80
2018-06-09T10:21:56.402Z,51.10
2018-06-09T10:24:25.454Z,50.80
2018-06-09T10:26:53.728Z,50.70
2018-06-09T10:29:22.030Z,50.30
2018-06-09T10:31:50.283Z,49.70
2018-06-09T10:34:18.546Z,50.00
2018-06-09T10:36:46.579Z,50.10
2018-06-09T10:39:20.879Z,51.30
2018-06-09T10:41:55.137Z,51.60
2018-06-09T10:44:30.161Z,50.10
2018-06-09T10:47:04.429Z,50.10
2018-06-09T10:49:38.698Z,50.10
2018-06-09T10:52:12.945Z,48.80
2018-06-09T10:54:41.217Z,50.40
2018-06-09T10:57:09.480Z,50.30
2018-06-09T10:59:37.740Z,49.30
2018-06-09T11:02:06.315Z,50.00
2018-06-09T11:04:34.564Z,51.20
2018-06-09T11:07:03.611Z,50.60
2018-06-09T11:09:31.888Z,50.60
2018-06-09T11:12:00.146Z,50.40
2018-06-09T11:14:28.419Z,48.50
2018-06-09T11:16:56.676Z,50.40
2018-06-09T11:19:24.935Z,48.60
2018-06-09T11:21:53.964Z,49.30
2018-06-09T11:24:22.495Z,49.30
2018-06-09T11:26:50.696Z,48.20
2018-06-09T11:29:18.969Z,47.80
2018-06-09T11:31:47.237Z,47.70
2018-06-09T11:34:15.499Z,47.10
2018-06-09T11:36:44.827Z,48.20
2018-06-09T11:39:13.148Z,48.10
2018-06-09T11:41:41.404Z,48.90
2018-06-09T11:44:09.680Z,47.70
2018-06-09T11:46:37.940Z,47.50
2018-06-09T11:49:06.273Z,47.20
2018-06-09T11:51:35.554Z,46.80
2018-06-09T11:54:03.820Z,46.80
2018-06-09T11:56:32.081Z,46.90
2018-06-09T11:59:00.364Z,47.60
2018-06-09T12:01:28.612Z,45.50
2018-06-09T12:03:56.874Z,47.60
2018-06-09T12:06:25.156Z,45.70
2018-06-09T12:08:53.444Z,47.50
2018-06-09T12:11:21.712Z,45.10
2018-06-09T12:13:50.753Z,46.00
2018-06-09T12:16:19.016Z,46.00
2018-06-09T12:18:47.287Z,46.80
2018-06-09T12:21:15.549Z,46.40
2018-06-09T12:23:43.842Z,47.50
2018-06-09T12:26:12.127Z,46.50
2018-06-09T12:28:40.384Z,45.20
2018-06-09T12:31:09.042Z,44.40
2018-06-09T12:33:37.282Z,43.60
2018-06-09T12:36:06.331Z,46.50
2018-06-09T12:38:34.628Z,46.50
2018-06-09T12:41:02.867Z,44.90
2018-06-09T12:43:31.142Z,45.80
2018-06-09T12:45:59.426Z,45.30
2018-06-09T12:48:27.663Z,45.20
2018-06-09T12:50:56.322Z,46.20
2018-06-09T12:53:25.334Z,42.40
2018-06-09T12:55:53.590Z,42.40
2018-06-09T12:58:21.861Z,44.50
2018-06-09T13:00:50.115Z,45.40
2018-06-09T13:03:18.386Z,44.50
2018-06-09T13:05:46.676Z,45.30
2018-06-09T13:08:14.896Z,46.20
2018-06-09T13:10:43.168Z,45.60
2018-06-09T13:13:11.435Z,45.30
2018-06-09T13:15:40.438Z,46.60
2018-06-09T13:18:08.715Z,46.50
2018-06-09T13:20:36.980Z,45.90
2018-06-09T13:23:05.275Z,47.00
2018-06-09T13:25:33.528Z,48.00
2018-06-09T13:28:01.806Z,47.10
2018-06-09T13:30:30.104Z,46.90
2018-06-09T13:32:58.378Z,46.90
2018-06-09T13:35:26.637Z,46.70
2018-06-09T13:37:54.895Z,46.30
2018-06-09T13:40:23.946Z,48.00
2018-06-09T13:42:52.206Z,48.40
2018-06-09T13:45:20.459Z,48.00
2018-06-09T13:47:48.755Z,47.50
2018-06-09T13:50:17.002Z,47.70
2018-06-09T13:52:45.277Z,47.10
2018-06-09T13:55:13.571Z,47.40
2018-06-09T13:57:41.845Z,47.80
2018-06-09T14:00:10.104Z,46.70
2018-06-09T14:02:38.510Z,48.20
2018-06-09T14:05:06.852Z,47.30
2018-06-09T14:07:35.088Z,47.70
2018-06-09T14:10:03.350Z,47.00
2018-06-09T14:12:31.910Z,47.30
2018-06-09T14:15:00.175Z,47.80
2018-06-09T14:17:28.434Z,47.60
2018-06-09T14:19:56.718Z,46.30
2018-06-09T14:22:24.995Z,48.00
2018-06-09T14:24:53.259Z,48.00
2018-06-09T14:27:21.507Z,47.00
2018-06-09T14:29:49.768Z,45.30
2018-06-09T14:32:18.056Z,46.10
2018-06-09T14:34:46.343Z,46.20
2018-06-09T14:37:15.367Z,46.80
2018-06-09T14:39:43.639Z,46.80
2018-06-09T14:42:11.905Z,46.60
2018-06-09T14:44:40.158Z,47.30
2018-06-09T14:47:10.158Z,49.00
2018-06-09T14:49:38.442Z,48.20
2018-06-09T14:52:06.721Z,46.80
2018-06-09T14:54:35.012Z,48.10
2018-06-09T14:57:04.060Z,49.00
2018-06-09T14:59:32.324Z,48.90
2018-06-09T15:02:00.711Z,49.20
2018-06-09T15:04:33.211Z,51.50
2018-06-09T15:07:01.473Z,50.20
2018-06-09T15:09:29.728Z,50.20
2018-06-09T15:11:57.982Z,49.80
2018-06-09T15:14:27.009Z,48.90
2018-06-09T15:16:55.263Z,48.90
2018-06-09T15:19:23.560Z,47.90
2018-06-09T15:21:52.177Z,49.10
2018-06-09T15:24:20.426Z,47.80
2018-06-09T15:26:48.732Z,48.60
2018-06-09T15:29:17.757Z,47.40
2018-06-09T15:31:46.017Z,47.30
2018-06-09T15:34:14.289Z,46.90
2018-06-09T15:36:42.588Z,46.50
2018-06-09T15:39:11.618Z,46.60
2018-06-09T15:41:39.887Z,46.60
2018-06-09T15:44:08.949Z,46.20
2018-06-09T15:46:37.306Z,46.30
2018-06-09T15:49:06.308Z,47.60
2018-06-09T15:51:34.576Z,47.60
2018-06-09T15:54:03.233Z,45.60
2018-06-09T15:56:31.768Z,47.70
2018-06-09T15:59:00.044Z,45.60
2018-06-09T16:01:28.304Z,46.00
2018-06-09T16:03:56.577Z,47.30
2018-06-09T16:06:25.735Z,48.80
2018-06-09T16:08:54.809Z,48.20
2018-06-09T16:11:23.101Z,48.20
2018-06-09T16:13:51.323Z,49.80
2018-06-09T16:16:19.620Z,51.00
2018-06-09T16:18:47.874Z,51.00
2018-06-09T16:21:16.145Z,49.60
2018-06-09T16:23:44.412Z,49.50
2018-06-09T16:26:12.672Z,48.60
2018-06-09T16:28:40.953Z,49.50
2018-06-09T16:31:10.136Z,49.50
2018-06-09T16:33:38.435Z,49.50
2018-06-09T16:36:06.686Z,50.00
2018-06-09T16:38:35.774Z,49.60
2018-06-09T16:41:04.005Z,49.50
2018-06-09T16:43:32.274Z,49.50
2018-06-09T16:46:00.532Z,49.50
2018-06-09T16:48:28.827Z,49.40
2018-06-09T16:50:57.075Z,49.40
2018-06-09T16:53:25.338Z,48.80
2018-06-09T16:55:53.614Z,48.90
2018-06-09T16:58:22.882Z,48.90
2018-06-09T17:00:51.142Z,49.10
2018-06-09T17:03:19.450Z,49.10
2018-06-09T17:05:48.464Z,49.60
2018-06-09T17:08:16.739Z,49.60
2018-06-09T17:10:45.040Z,49.40
2018-06-09T17:13:13.281Z,48.80
2018-06-09T17:15:41.555Z,49.40
2018-06-09T17:18:09.814Z,50.00
2018-06-09T17:20:38.833Z,48.90
2018-06-09T17:23:07.138Z,48.80
2018-06-09T17:25:35.399Z,49.60
2018-06-09T17:28:03.655Z,49.90
2018-06-09T17:30:31.928Z,50.00
2018-06-09T17:33:00.187Z,50.70
2018-06-09T17:35:29.230Z,49.40
2018-06-09T17:37:57.482Z,49.40
2018-06-09T17:40:26.167Z,48.80
2018-06-09T17:42:54.426Z,48.90
2018-06-09T17:45:22.686Z,49.60
2018-06-09T17:47:51.718Z,51.30
2018-06-09T17:50:20.026Z,51.20
2018-06-09T17:52:48.287Z,52.80
2018-06-09T17:55:16.563Z,51.60
2018-06-09T17:57:44.844Z,51.50
2018-06-09T18:03:23.916Z,53.00
2018-06-09T18:05:52.949Z,54.50
2018-06-09T18:08:21.199Z,54.40
2018-06-09T18:10:49.475Z,54.40
2018-06-09T18:13:17.721Z,55.00
2018-06-09T18:15:46.752Z,56.40
2018-06-09T18:18:15.043Z,55.60
2018-06-09T18:20:43.298Z,56.20
2018-06-09T18:23:11.597Z,56.90
2018-06-09T18:25:39.864Z,57.20
2018-06-09T18:28:08.147Z,57.80
2018-06-09T18:30:36.438Z,58.20
2018-06-09T18:33:04.682Z,58.80
2018-06-09T18:35:32.964Z,59.00
2018-06-09T18:38:01.287Z,59.50
2018-06-09T18:40:29.564Z,60.00
2018-06-09T18:42:57.864Z,59.90
2018-06-09T18:45:27.138Z,60.10
2018-06-09T18:47:56.196Z,60.10
2018-06-09T18:50:24.448Z,60.10
2018-06-09T18:52:52.739Z,60.00
2018-06-09T18:55:20.994Z,60.20
2018-06-09T18:57:49.284Z,60.00
2018-06-09T19:00:17.710Z,60.00
2018-06-09T19:02:45.954Z,60.00
2018-06-09T19:05:14.353Z,60.00
2018-06-09T19:07:42.698Z,60.00
2018-06-09T19:10:11.024Z,60.00
2018-06-09T19:12:39.418Z,59.90
2018-06-09T19:15:08.436Z,60.00
2018-06-09T19:17:36.696Z,59.90
2018-06-09T19:20:05.018Z,60.70
2018-06-09T19:22:33.588Z,59.90
2018-06-09T19:25:01.850Z,59.90
2018-06-09T19:27:30.142Z,59.90
2018-06-09T19:29:58.391Z,59.90
2018-06-09T19:32:26.645Z,59.90
2018-06-09T19:34:55.736Z,60.00
2018-06-09T19:37:24.800Z,59.60
2018-06-09T19:39:53.072Z,59.60
2018-06-09T19:42:21.595Z,59.90
2018-06-09T19:44:49.858Z,59.90
2018-06-09T19:47:18.882Z,59.90
2018-06-09T19:49:47.159Z,60.00
2018-06-09T19:52:15.428Z,59.90
2018-06-09T19:54:43.949Z,59.90
2018-06-09T19:57:12.217Z,59.90
2018-06-09T19:59:40.479Z,59.90
2018-06-09T20:02:08.767Z,59.90
2018-06-09T20:04:37.015Z,59.90
2018-06-09T20:07:05.324Z,59.90
2018-06-09T20:09:33.583Z,59.90
2018-06-09T20:12:03.325Z,60.80
2018-06-09T20:14:32.154Z,60.40
2018-06-09T20:17:00.419Z,60.80
2018-06-09T20:19:28.697Z,60.90
2018-06-09T20:21:56.994Z,61.10
2018-06-09T20:24:25.253Z,61.50
2018-06-09T20:26:53.522Z,61.20
2018-06-09T20:29:21.795Z,61.10
2018-06-09T20:31:50.091Z,61.50
2018-06-09T20:34:18.706Z,61.20
2018-06-09T20:36:46.966Z,61.10
2018-06-09T20:39:15.236Z,61.40
2018-06-09T20:41:43.509Z,61.50
2018-06-09T20:44:11.753Z,61.50
2018-06-09T20:46:40.035Z,61.40
2018-06-09T20:49:08.294Z,61.50
2018-06-09T20:51:36.563Z,61.50
2018-06-09T20:54:04.830Z,61.60
2018-06-09T20:56:33.863Z,61.80
2018-06-09T20:59:02.175Z,61.80
2018-06-09T21:01:30.429Z,62.00
2018-06-09T21:03:58.708Z,62.10
2018-06-09T21:06:26.963Z,62.20
2018-06-09T21:08:55.220Z,62.30
2018-06-09T21:11:23.497Z,62.50
2018-06-09T21:13:51.763Z,62.50
2018-06-09T21:16:20.023Z,62.80
2018-06-09T21:18:49.084Z,62.90
2018-06-09T21:21:17.337Z,62.70
2018-06-09T21:23:45.602Z,62.10
2018-06-09T21:26:13.882Z,61.90
2018-06-09T21:28:42.150Z,61.90
2018-06-09T21:31:10.744Z,62.30
2018-06-09T21:33:50.871Z,62.30
2018-06-09T21:36:19.905Z,62.10
2018-06-09T21:38:48.180Z,62.20
2018-06-09T21:41:16.436Z,62.20
2018-06-09T21:43:44.706Z,62.10
2018-06-09T21:46:12.971Z,62.30
2018-06-09T21:48:41.242Z,62.60
2018-06-09T21:51:09.510Z,62.70
2018-06-09T21:53:37.787Z,62.60
2018-06-09T21:56:06.063Z,62.60
2018-06-09T21:58:34.344Z,62.70
2018-06-09T22:01:02.601Z,62.70
2018-06-09T22:03:31.888Z,62.70
2018-06-09T22:06:00.928Z,63.00
2018-06-09T22:08:29.204Z,62.90
2018-06-09T22:10:57.460Z,63.00
2018-06-09T22:13:25.772Z,63.10
2018-06-09T22:15:54.020Z,62.90
2018-06-09T22:18:22.304Z,63.20
2018-06-09T22:20:50.563Z,63.30
2018-06-09T22:23:18.835Z,63.20
2018-06-09T22:25:47.114Z,63.00
2018-06-09T22:28:15.384Z,62.60
2018-06-09T22:30:43.642Z,62.30
2018-06-09T22:33:12.725Z,62.30
2018-06-09T22:35:40.979Z,62.20
2018-06-09T22:38:09.253Z,62.10
2018-06-09T22:40:37.537Z,62.70
2018-06-09T22:43:05.782Z,62.70
2018-06-09T22:45:34.069Z,62.60
2018-06-09T22:48:02.336Z,62.90
2018-06-09T22:50:30.613Z,62.90
2018-06-09T22:52:58.874Z,62.90
2018-06-09T22:55:27.148Z,62.90
2018-06-09T22:57:55.404Z,63.20
2018-06-09T23:00:23.659Z,63.30
2018-06-09T23:02:52.704Z,63.00
2018-06-09T23:05:20.969Z,62.90
2018-06-09T23:07:49.235Z,62.90
2018-06-09T23:10:17.486Z,62.60
2018-06-09T23:12:45.759Z,62.40
2018-06-09T23:15:14.798Z,62.60
2018-06-09T23:17:43.075Z,62.60
2018-06-09T23:20:11.336Z,62.90
2018-06-09T23:22:39.720Z,63.00
2018-06-09T23:25:07.968Z,62.80
2018-06-09T23:27:36.223Z,62.70
2018-06-09T23:30:05.270Z,63.00
2018-06-09T23:32:33.527Z,63.00
2018-06-09T23:35:01.784Z,62.60
2018-06-09T23:37:30.064Z,62.60
2018-06-09T23:39:58.314Z,62.40
2018-06-09T23:42:27.354Z,62.30
2018-06-09T23:44:55.614Z,62.10
2018-06-09T23:47:23.876Z,62.00
2018-06-09T23:49:52.124Z,61.90
2018-06-09T23:52:21.163Z,62.70
2018-06-09T23:54:49.415Z,62.00
2018-06-09T23:57:17.671Z,62.20
2018-06-09T23:59:46.706Z,62.60
